If you wish to contribute or participate in the discussions about articles you are invited to join SKYbrary as a registered user

 Actions

Allen Army Airfield

From SKYbrary Wiki

PABI
Airport
ICAO: PABI – IATA: BIG
Summary
Name Allen Army Airfield
Region North America
Territory Alaska US.gif
Location , Alaska
Serving Delta Junction
Elevation 393.497 m
1,291 ft
1,291 ft393.497 m
Type medium airport
Coordinates 63° 59' 40.3692", -145° 43' 17.9112"
Runways
Designator Length Width Surface ROPS
1/19 2743 m8,999.344 ft 46 m150.919 ft ASPH-G /
7/25 1426 m4,678.478 ft 50 m164.042 ft ASPH-G /
10/28 1864 m6,115.486 ft 46 m150.919 ft ASPH-G /
METAR
Observation PABI 132153Z 11024G31KT 10SM SCT060 SCT100 BKN160 M01/M07 A2962 RMK AO2 PK WND 12036/2107 SLP052 T10061072
Station Delta Junction/Ft Greely, Allen Army Airfield
Date/Time 13 December 2017 21:53:00
Wind direction 110°
Wind speed 24 kts
Lowest cloud amount scattered clouds
Temperature
Dew point
Humidity 60%
QNH hPa
Weather condition n/a